createdAt,value
2023-02-19T00:02:40.213Z,98475.09
2023-02-19T00:08:48.970Z,98466.67
2023-02-19T00:14:12.317Z,98462.05
2023-02-19T00:20:16.336Z,98472.89
2023-02-19T00:26:46.442Z,98468.91
2023-02-19T00:32:51.108Z,98471.09
2023-02-19T00:38:59.011Z,98466.55
2023-02-19T00:46:00.251Z,98461.79
2023-02-19T00:52:22.969Z,98461.37
2023-02-19T00:58:28.839Z,98457.33
2023-02-19T01:05:12.060Z,98457.01
2023-02-19T01:11:57.509Z,98450.39
2023-02-19T01:18:43.176Z,98438.86
2023-02-19T01:25:46.913Z,98438.10
2023-02-19T01:32:54.901Z,98426.39
2023-02-19T01:40:08.501Z,98414.02
2023-02-19T01:46:51.831Z,98410.15
2023-02-19T01:53:51.539Z,98400.80
2023-02-19T02:00:55.230Z,98402.18
2023-02-19T02:07:56.692Z,98394.05
2023-02-19T02:15:01.323Z,98383.79
2023-02-19T02:22:01.543Z,98384.02
2023-02-19T02:29:18.091Z,98372.02
2023-02-19T02:36:30.428Z,98360.66
2023-02-19T02:43:33.990Z,98365.00
2023-02-19T02:50:37.510Z,98343.02
2023-02-19T02:57:41.273Z,98333.52
2023-02-19T03:04:47.556Z,98329.48
2023-02-19T03:12:24.572Z,98320.89
2023-02-19T03:19:06.388Z,98326.02
2023-02-19T03:26:24.824Z,98329.36
2023-02-19T03:33:52.440Z,98332.06
2023-02-19T03:41:01.775Z,98336.00
2023-02-19T03:48:08.705Z,98329.88
2023-02-19T03:55:15.399Z,98324.91
2023-02-19T04:02:29.082Z,98314.82
2023-02-19T04:09:32.669Z,98300.01
2023-02-19T04:16:36.422Z,98300.30
2023-02-19T04:23:44.036Z,98289.09
2023-02-19T04:30:51.470Z,98286.54
2023-02-19T04:37:54.871Z,98280.67
2023-02-19T04:44:57.249Z,98258.36
2023-02-19T04:52:00.874Z,98236.40
2023-02-19T04:59:04.470Z,98223.64
2023-02-19T05:06:07.727Z,98206.21
2023-02-19T05:13:11.316Z,98198.60
2023-02-19T05:20:14.806Z,98198.89
2023-02-19T05:27:18.360Z,98194.73
2023-02-19T05:34:22.040Z,98187.98
2023-02-19T05:41:25.711Z,98197.02
2023-02-19T05:48:23.147Z,98205.54
2023-02-19T05:55:28.875Z,98216.98
2023-02-19T06:02:32.729Z,98225.56
2023-02-19T06:09:37.458Z,98222.94
2023-02-19T06:16:41.139Z,98211.27
2023-02-19T06:23:49.217Z,98208.20
2023-02-19T06:30:52.944Z,98214.67
2023-02-19T06:37:57.767Z,98211.18
2023-02-19T06:45:01.361Z,98205.39
2023-02-19T06:52:04.028Z,98205.80
2023-02-19T06:58:42.019Z,98203.02
2023-02-19T07:05:46.823Z,98199.04
2023-02-19T07:12:51.491Z,98189.67
2023-02-19T07:19:55.080Z,98189.65
2023-02-19T07:27:18.579Z,98189.20
2023-02-19T07:34:46.183Z,98182.11
2023-02-19T07:41:55.803Z,98165.39
2023-02-19T07:48:52.884Z,98152.53
2023-02-19T07:55:51.277Z,98149.65
2023-02-19T08:02:56.020Z,98150.89
2023-02-19T08:09:59.672Z,98151.77
2023-02-19T08:17:03.518Z,98156.96
2023-02-19T08:24:08.213Z,98157.05
2023-02-19T08:31:13.984Z,98161.33
2023-02-19T08:38:26.615Z,98173.77
2023-02-19T08:45:30.316Z,98179.19
2023-02-19T08:52:34.610Z,98185.36
2023-02-19T08:59:38.379Z,98186.86
2023-02-19T09:06:32.959Z,98185.73
2023-02-19T09:13:22.055Z,98192.64
2023-02-19T09:20:22.460Z,98199.04
2023-02-19T09:27:19.125Z,98208.56
2023-02-19T09:33:38.817Z,98215.20
2023-02-19T09:40:33.667Z,98217.17
2023-02-19T09:47:33.481Z,98232.48
2023-02-19T09:54:10.831Z,98249.73
2023-02-19T10:01:00.647Z,98253.92
2023-02-19T10:07:53.762Z,98259.55
2023-02-19T10:14:37.179Z,98272.07
2023-02-19T10:21:26.099Z,98274.25
2023-02-19T10:28:32.528Z,98294.16
2023-02-19T10:35:18.335Z,98308.70
2023-02-19T10:42:21.817Z,98320.20
2023-02-19T10:49:34.728Z,98322.94
2023-02-19T10:56:47.632Z,98338.27
2023-02-19T11:03:54.051Z,98350.33
2023-02-19T11:10:50.243Z,98358.02
2023-02-19T11:17:40.744Z,98365.30
2023-02-19T11:24:47.169Z,98376.89
2023-02-19T11:31:40.233Z,98382.27
2023-02-19T11:38:34.954Z,98402.27
2023-02-19T11:45:49.384Z,98412.03
2023-02-19T11:53:00.949Z,98442.45
2023-02-19T12:00:07.648Z,98438.98
2023-02-19T12:06:49.307Z,98454.79
2023-02-19T12:13:24.798Z,98468.81
2023-02-19T12:20:11.519Z,98465.35
2023-02-19T12:27:37.132Z,98484.73
2023-02-19T12:34:20.734Z,98503.83
2023-02-19T12:41:57.274Z,98506.86
2023-02-19T12:48:49.601Z,98521.14
2023-02-19T12:55:53.165Z,98534.36
2023-02-19T13:10:19.356Z,98549.45
2023-02-19T13:17:29.833Z,98561.73
2023-02-19T13:24:19.199Z,98568.36
2023-02-19T13:31:06.720Z,98577.70
2023-02-19T13:37:42.143Z,98586.96
2023-02-19T13:44:47.274Z,98600.33
2023-02-19T13:51:58.366Z,98609.63
2023-02-19T13:59:16.026Z,98621.44
2023-02-19T14:06:10.787Z,98631.33
2023-02-19T14:13:07.276Z,98633.52
2023-02-19T14:20:13.872Z,98639.55
2023-02-19T14:27:10.632Z,98657.50
2023-02-19T14:34:20.157Z,98668.52
2023-02-19T14:41:42.513Z,98680.50
2023-02-19T14:48:50.845Z,98691.17
2023-02-19T14:55:57.476Z,98693.27
2023-02-19T15:02:54.847Z,98690.23
2023-02-19T15:09:37.982Z,98693.33
2023-02-19T15:16:25.818Z,98701.15
2023-02-19T15:23:27.490Z,98717.29
2023-02-19T15:30:19.809Z,98722.23
2023-02-19T15:37:12.931Z,98732.92
2023-02-19T15:44:24.606Z,98750.58
2023-02-19T15:51:16.177Z,98771.46
2023-02-19T15:58:22.496Z,98787.41
2023-02-19T16:05:25.757Z,98795.03
2023-02-19T16:12:34.763Z,98808.09
2023-02-19T16:19:39.939Z,98823.14
2023-02-19T16:26:33.995Z,98835.11
2023-02-19T16:33:59.286Z,98848.44
2023-02-19T16:40:31.638Z,98870.77
2023-02-19T16:46:43.947Z,98891.09
2023-02-19T16:52:59.170Z,98904.68
2023-02-19T16:59:30.356Z,98912.98
2023-02-19T17:06:34.507Z,98927.74
2023-02-19T17:13:08.467Z,98944.52
2023-02-19T17:19:28.025Z,98952.79
2023-02-19T17:26:30.743Z,98957.04
2023-02-19T17:33:32.940Z,98965.67
2023-02-19T17:40:35.968Z,98988.52
2023-02-19T17:47:06.498Z,98999.83
2023-02-19T17:53:55.877Z,98999.80
2023-02-19T18:00:53.105Z,99011.92
2023-02-19T18:07:27.615Z,99022.14
2023-02-19T18:14:04.697Z,99031.41
2023-02-19T18:20:40.785Z,99036.45
2023-02-19T18:26:33.601Z,99044.38
2023-02-19T18:31:36.982Z,99046.91
2023-02-19T18:36:38.568Z,99051.34
2023-02-19T18:41:40.171Z,99062.40
2023-02-19T18:46:41.725Z,99068.41
2023-02-19T18:51:43.633Z,99074.77
2023-02-19T18:56:45.965Z,99080.30
2023-02-19T19:01:47.334Z,99087.15
2023-02-19T19:06:48.893Z,99095.86
2023-02-19T19:12:49.953Z,99099.00
2023-02-19T19:19:10.993Z,99108.34
2023-02-19T19:25:32.002Z,99108.88
2023-02-19T19:30:35.618Z,99113.52
2023-02-19T19:35:36.930Z,99121.17
2023-02-19T19:41:37.943Z,99126.14
2023-02-19T19:47:59.111Z,99121.69
2023-02-19T19:54:20.281Z,99128.11
2023-02-19T20:00:43.827Z,99127.08
2023-02-19T20:07:06.432Z,99126.35
2023-02-19T20:13:27.809Z,99128.11
2023-02-19T20:19:08.847Z,99132.97
2023-02-19T20:24:16.345Z,99138.98
2023-02-19T20:29:17.874Z,99140.12
2023-02-19T20:35:19.010Z,99146.59
2023-02-19T20:41:07.172Z,99161.89
2023-02-19T20:47:18.350Z,99163.30
2023-02-19T20:52:40.020Z,99168.90
2023-02-19T20:58:41.294Z,99172.10
2023-02-19T21:05:11.379Z,99180.89
2023-02-19T21:11:12.386Z,99194.27
2023-02-19T21:16:33.646Z,99206.22
2023-02-19T21:22:34.665Z,99210.96
2023-02-19T21:28:55.837Z,99216.34
2023-02-19T21:35:16.863Z,99227.55
2023-02-19T21:41:37.861Z,99233.48
2023-02-19T21:47:39.062Z,99236.83
2023-02-19T21:53:40.135Z,99238.67
2023-02-19T22:00:01.340Z,99247.35
2023-02-19T22:06:22.504Z,99252.33
2023-02-19T22:11:27.545Z,99250.59
2023-02-19T22:16:31.701Z,99250.56
2023-02-19T22:21:33.223Z,99258.89
2023-02-19T22:26:35.325Z,99269.45
2023-02-19T22:31:36.854Z,99266.96
2023-02-19T22:36:39.822Z,99276.14
2023-02-19T22:41:42.400Z,99283.46
2023-02-19T22:46:54.582Z,99285.28
2023-02-19T22:52:07.762Z,99286.70
2023-02-19T22:57:09.405Z,99299.90
2023-02-19T23:02:11.077Z,99303.64
2023-02-19T23:07:12.565Z,99313.02
2023-02-19T23:12:14.033Z,99315.56
2023-02-19T23:17:15.268Z,99317.83
2023-02-19T23:22:16.759Z,99328.26
2023-02-19T23:27:18.085Z,99324.71
2023-02-19T23:32:20.512Z,99319.63
2023-02-19T23:37:22.013Z,99322.91
2023-02-19T23:42:23.485Z,99319.66
2023-02-19T23:47:26.037Z,99316.84
2023-02-19T23:52:27.634Z,99318.74
2023-02-19T23:57:28.946Z,99312.05
